Time;durP1;ratioP1;P1;durP2;ratioP2;P2;SDS_P1;SDS_P2;PMS_P1;PMS_P2;Temp;Humidity;BMP_temperature;BMP_pressure;BME280_temperature;BME280_humidity;BME280_pressure;Samples;Min_cycle;Max_cycle;Signal;HPM_P1;HPM_P2
2021/08/20 00:00:00;;;;;;;;;31.75;29.00;34.10;21.40;;;;;;684482;28;6068;-89
2021/08/20 00:00:21;;;;;;;;;28.00;27.00;34.10;21.50;;;;;;686972;28;6071;-82
2021/08/20 00:00:41;;;;;;;;;31.00;30.00;34.10;21.50;;;;;;686852;28;6090;-91
2021/08/20 00:01:02;;;;;;;;;28.50;27.50;34.10;21.70;;;;;;686376;28;6180;-94
2021/08/20 00:01:25;;;;;;;;;29.40;26.00;34.10;21.60;;;;;;685936;28;6829;-87
2021/08/20 00:01:52;;;;;;;;;25.00;23.60;34.10;21.50;;;;;;688728;28;8254;-90
2021/08/20 00:02:13;;;;;;;;;24.40;24.40;34.10;21.80;;;;;;689442;28;6257;-88
2021/08/20 00:02:35;;;;;;;;;25.00;25.00;34.10;21.70;;;;;;689482;28;5639;-92
2021/08/20 00:02:59;;;;;;;;;29.00;28.00;34.10;21.80;;;;;;686668;28;6221;-89
2021/08/20 00:03:20;;;;;;;;;27.80;27.00;34.10;21.80;;;;;;686736;28;6413;-93
2021/08/20 00:03:40;;;;;;;;;29.75;27.00;34.10;21.90;;;;;;683916;28;6015;-88
2021/08/20 00:04:03;;;;;;;;;28.00;27.00;34.10;21.80;;;;;;681433;28;6131;-90
2021/08/20 00:04:24;;;;;;;;;28.00;26.80;34.10;22.10;;;;;;681696;28;6307;-94
2021/08/20 00:04:45;;;;;;;;;29.67;28.00;34.10;22.10;;;;;;682028;28;5977;-90
2021/08/20 00:05:07;;;;;;;;;32.33;30.67;34.00;21.90;;;;;;683332;28;6203;-91
2021/08/20 00:05:30;;;;;;;;;30.75;28.50;34.10;21.90;;;;;;681142;28;6196;-89
2021/08/20 00:05:54;;;;;;;;;27.40;26.00;34.10;22.10;;;;;;682202;28;8348;-91
2021/08/20 00:06:15;;;;;;;;;26.00;24.00;34.10;21.80;;;;;;684122;28;6164;-91
2021/08/20 00:06:35;;;;;;;;;30.80;29.20;34.10;21.90;;;;;;680982;28;6063;-89
2021/08/20 00:06:56;;;;;;;;;23.20;22.80;34.10;21.80;;;;;;681334;28;6208;-87
2021/08/20 00:07:19;;;;;;;;;21.25;21.00;34.10;21.70;;;;;;682275;28;6063;-90
2021/08/20 00:07:40;;;;;;;;;23.00;22.00;34.10;21.90;;;;;;684189;28;6172;-94
2021/08/20 00:08:01;;;;;;;;;23.75;23.25;34.10;21.80;;;;;;686012;28;6092;-88
2021/08/20 00:08:22;;;;;;;;;23.25;21.25;34.10;21.50;;;;;;687582;28;6055;-92
2021/08/20 00:08:43;;;;;;;;;24.50;23.50;34.10;21.60;;;;;;688813;28;6090;-89
2021/08/20 00:09:07;;;;;;;;;25.33;24.67;34.10;21.90;;;;;;687989;28;6032;-92
2021/08/20 00:09:28;;;;;;;;;27.60;26.00;34.10;22.10;;;;;;683922;28;6164;-84
2021/08/20 00:09:50;;;;;;;;;28.20;25.60;34.00;21.70;;;;;;686003;28;6162;-92
2021/08/20 00:10:11;;;;;;;;;26.20;25.20;34.00;21.70;;;;;;684004;28;6320;-91
2021/08/20 00:10:33;;;;;;;;;28.00;26.50;34.10;21.80;;;;;;680747;28;5949;-90
2021/08/20 00:10:54;;;;;;;;;22.20;22.00;34.10;21.30;;;;;;678967;28;6186;-91
2021/08/20 00:11:22;;;;;;;;;23.80;22.20;34.10;21.40;;;;;;679654;28;6142;-90
2021/08/20 00:11:42;;;;;;;;;26.80;24.40;34.10;21.70;;;;;;681891;28;6256;-87
2021/08/20 00:12:04;;;;;;;;;24.00;22.50;34.10;21.30;;;;;;683332;28;6169;-91
2021/08/20 00:12:26;;;;;;;;;22.25;22.25;34.10;21.80;;;;;;685181;28;6497;-91
2021/08/20 00:12:50;;;;;;;;;24.60;23.60;34.10;21.80;;;;;;686999;28;6584;-91
2021/08/20 00:13:10;;;;;;;;;27.00;25.00;34.10;21.70;;;;;;681311;28;8495;-88
2021/08/20 00:13:31;;;;;;;;;35.50;29.50;34.10;21.90;;;;;;681608;28;7014;-89
2021/08/20 00:13:52;;;;;;;;;19.80;19.80;34.10;21.80;;;;;;680959;28;6267;-88
2021/08/20 00:14:15;;;;;;;;;22.75;22.75;34.10;21.80;;;;;;679173;28;6147;-87
2021/08/20 00:14:37;;;;;;;;;28.25;26.75;34.10;21.80;;;;;;679851;28;8173;-90
2021/08/20 00:14:57;;;;;;;;;26.00;24.00;34.10;21.80;;;;;;681670;28;5977;-85
2021/08/20 00:15:18;;;;;;;;;23.00;23.00;34.10;21.90;;;;;;681061;28;5910;-88
2021/08/20 00:15:39;;;;;;;;;26.25;23.75;34.10;21.70;;;;;;681874;28;6043;-87
2021/08/20 00:16:00;;;;;;;;;24.00;22.00;34.10;21.80;;;;;;680218;28;7129;-88
2021/08/20 00:16:24;;;;;;;;;21.00;21.00;34.10;21.90;;;;;;681119;28;5941;-89
2021/08/20 00:16:56;;;;;;;;;26.40;22.40;34.10;21.90;;;;;;682338;28;8284;-94
2021/08/20 00:17:17;;;;;;;;;23.40;21.80;34.10;21.80;;;;;;684385;28;6184;-89
2021/08/20 00:17:38;;;;;;;;;22.25;21.50;34.10;21.70;;;;;;684985;28;6208;-87
2021/08/20 00:18:02;;;;;;;;;27.25;25.25;34.10;21.80;;;;;;687013;28;6278;-95
2021/08/20 00:18:25;;;;;;;;;22.20;21.20;34.10;21.90;;;;;;685258;28;6236;-91
2021/08/20 00:18:46;;;;;;;;;23.00;20.60;34.10;21.90;;;;;;686582;28;6300;-87
2021/08/20 00:19:07;;;;;;;;;20.80;19.80;34.10;22.00;;;;;;682183;28;6279;-82
2021/08/20 00:19:34;;;;;;;;;25.00;21.75;34.00;21.80;;;;;;681830;28;6071;-82
2021/08/20 00:19:55;;;;;;;;;24.00;22.00;34.00;22.10;;;;;;679027;28;8127;-90
2021/08/20 00:20:16;;;;;;;;;21.75;19.25;34.00;21.80;;;;;;681310;28;6889;-90
2021/08/20 00:20:37;;;;;;;;;23.00;21.40;34.00;22.10;;;;;;682603;28;6183;-86
2021/08/20 00:20:58;;;;;;;;;19.75;19.75;34.00;21.90;;;;;;683825;28;6045;-91
2021/08/20 00:21:19;;;;;;;;;24.00;22.00;34.00;22.20;;;;;;684667;28;6462;-85
2021/08/20 00:21:40;;;;;;;;;26.00;22.50;34.00;22.30;;;;;;683379;28;6256;-85
2021/08/20 00:22:03;;;;;;;;;23.20;22.00;33.00;21.60;;;;;;684989;28;6729;-87
2021/08/20 00:22:24;;;;;;;;;20.00;18.00;34.00;22.10;;;;;;681947;28;7379;-84
2021/08/20 00:22:44;;;;;;;;;18.75;17.75;34.00;22.10;;;;;;682282;28;6161;-87
2021/08/20 00:23:05;;;;;;;;;20.00;19.00;33.90;22.10;;;;;;682109;28;6864;-85
2021/08/20 00:23:26;;;;;;;;;21.00;21.00;34.00;22.10;;;;;;682604;28;6934;-85
2021/08/20 00:23:46;;;;;;;;;21.50;20.50;34.00;22.10;;;;;;684160;28;6239;-85
2021/08/20 00:24:08;;;;;;;;;20.00;20.00;34.00;22.10;;;;;;685042;28;6792;-86
2021/08/20 00:24:28;;;;;;;;;19.60;18.00;33.90;21.90;;;;;;683562;28;6143;-85
2021/08/20 00:24:50;;;;;;;;;22.50;22.00;33.90;21.90;;;;;;684733;28;6097;-84
2021/08/20 00:25:13;;;;;;;;;20.00;19.00;33.90;22.00;;;;;;684437;28;6181;-84
2021/08/20 00:25:35;;;;;;;;;23.00;22.20;33.90;21.90;;;;;;684401;28;6654;-84
2021/08/20 00:25:55;;;;;;;;;23.75;22.25;33.90;21.80;;;;;;684027;28;7428;-84
2021/08/20 00:26:16;;;;;;;;;21.60;21.60;33.90;21.80;;;;;;685445;28;6960;-84
2021/08/20 00:26:37;;;;;;;;;26.00;21.50;33.90;21.80;;;;;;688498;28;5927;-82
2021/08/20 00:26:57;;;;;;;;;26.67;21.00;33.90;21.80;;;;;;687774;28;5891;-85
2021/08/20 00:27:18;;;;;;;;;23.40;22.40;33.90;21.80;;;;;;684465;28;6247;-86
2021/08/20 00:27:39;;;;;;;;;19.40;19.40;33.90;21.70;;;;;;685024;28;6065;-86
2021/08/20 00:28:00;;;;;;;;;18.60;17.60;33.90;21.70;;;;;;684584;28;6142;-88
2021/08/20 00:28:21;;;;;;;;;21.75;20.50;33.90;21.70;;;;;;683022;28;6884;-87
2021/08/20 00:28:41;;;;;;;;;23.50;21.75;33.90;21.70;;;;;;680127;28;5898;-86
2021/08/20 00:29:02;;;;;;;;;20.75;19.00;33.90;21.70;;;;;;680425;28;6171;-86
2021/08/20 00:29:25;;;;;;;;;21.00;20.00;33.90;21.80;;;;;;679755;28;6228;-87
2021/08/20 00:29:46;;;;;;;;;20.40;19.40;33.90;21.70;;;;;;679950;28;6161;-85
2021/08/20 00:30:12;;;;;;;;;17.60;17.00;33.90;21.70;;;;;;680758;28;6214;-83
2021/08/20 00:30:33;;;;;;;;;17.00;17.00;33.90;21.60;;;;;;684349;28;6754;-84
2021/08/20 00:30:54;;;;;;;;;19.00;18.00;33.90;21.70;;;;;;685622;28;6045;-83
2021/08/20 00:31:15;;;;;;;;;17.40;16.80;33.90;21.50;;;;;;686250;28;6108;-83
2021/08/20 00:31:36;;;;;;;;;17.20;16.20;33.90;21.60;;;;;;686859;28;6139;-84
2021/08/20 00:31:56;;;;;;;;;19.00;15.40;33.90;21.60;;;;;;687002;28;6046;-87
2021/08/20 00:32:17;;;;;;;;;18.25;16.00;33.90;21.60;;;;;;687084;28;6480;-89
2021/08/20 00:32:41;;;;;;;;;18.75;18.00;33.90;21.60;;;;;;688194;28;7530;-89
2021/08/20 00:33:02;;;;;;;;;20.00;16.00;33.90;21.50;;;;;;686884;28;6137;-86
2021/08/20 00:33:22;;;;;;;;;17.25;16.00;33.90;21.50;;;;;;684971;28;6076;-86
2021/08/20 00:33:43;;;;;;;;;16.50;14.50;33.90;21.50;;;;;;685026;28;6166;-87
2021/08/20 00:34:04;;;;;;;;;20.60;19.20;33.90;21.20;;;;;;684770;28;6226;-87
2021/08/20 00:34:25;;;;;;;;;18.00;17.00;33.90;21.60;;;;;;685673;28;7151;-87
2021/08/20 00:34:46;;;;;;;;;17.00;17.00;33.90;21.60;;;;;;685170;28;6233;-87
2021/08/20 00:35:07;;;;;;;;;18.00;17.00;33.90;21.60;;;;;;685208;28;6157;-87
2021/08/20 00:35:31;;;;;;;;;20.20;19.60;33.90;22.50;;;;;;688711;28;6191;-86
2021/08/20 00:35:51;;;;;;;;;21.00;20.40;33.90;21.60;;;;;;687942;28;6897;-85
2021/08/20 00:36:12;;;;;;;;;23.00;19.00;33.90;21.70;;;;;;685447;28;6295;-84
2021/08/20 00:36:33;;;;;;;;;22.40;18.60;33.90;21.60;;;;;;683719;28;6175;-85
2021/08/20 00:36:54;;;;;;;;;17.50;17.00;33.90;21.60;;;;;;684454;28;6098;-85
2021/08/20 00:37:14;;;;;;;;;19.00;18.50;33.90;21.70;;;;;;684591;28;7660;-82
2021/08/20 00:37:35;;;;;;;;;17.50;16.50;33.90;21.70;;;;;;681576;28;6210;-84
2021/08/20 00:37:56;;;;;;;;;17.00;17.00;33.90;21.70;;;;;;679081;28;6114;-85
2021/08/20 00:38:17;;;;;;;;;18.60;18.60;33.90;21.60;;;;;;680151;28;6114;-85
2021/08/20 00:38:38;;;;;;;;;18.00;17.60;33.90;21.60;;;;;;682183;28;6183;-85
2021/08/20 00:39:01;;;;;;;;;17.40;17.40;33.90;21.60;;;;;;682497;28;6461;-85
2021/08/20 00:39:23;;;;;;;;;18.00;17.00;33.90;21.60;;;;;;681885;28;6923;-86
2021/08/20 00:39:44;;;;;;;;;14.25;13.25;33.90;21.50;;;;;;683035;28;8583;-85
2021/08/20 00:40:06;;;;;;;;;19.00;18.00;33.90;21.60;;;;;;682658;28;6164;-86
2021/08/20 00:40:27;;;;;;;;;18.00;17.20;33.80;21.40;;;;;;682828;28;6225;-86
2021/08/20 00:40:48;;;;;;;;;20.75;19.50;33.90;21.60;;;;;;682638;28;6024;-87
2021/08/20 00:41:12;;;;;;;;;19.20;17.20;33.90;21.50;;;;;;682516;28;6125;-85
2021/08/20 00:41:33;;;;;;;;;19.75;18.00;33.90;21.50;;;;;;684247;28;6130;-86
2021/08/20 00:41:54;;;;;;;;;18.75;17.00;33.90;21.50;;;;;;687271;28;6018;-88
2021/08/20 00:42:15;;;;;;;;;16.00;16.00;33.90;21.60;;;;;;687822;28;5897;-84
2021/08/20 00:42:36;;;;;;;;;17.20;16.60;33.90;21.60;;;;;;687794;28;5965;-86
2021/08/20 00:42:56;;;;;;;;;20.00;17.80;33.90;21.60;;;;;;684390;28;6831;-87
2021/08/20 00:43:18;;;;;;;;;16.80;15.80;33.90;21.50;;;;;;685876;28;6123;-86
2021/08/20 00:43:43;;;;;;;;;16.25;16.25;33.90;21.50;;;;;;685250;28;6004;-86
2021/08/20 00:44:03;;;;;;;;;20.00;18.00;33.90;21.50;;;;;;685104;28;7152;-86
2021/08/20 00:44:24;;;;;;;;;18.50;17.50;33.90;21.40;;;;;;684544;28;6734;-86
2021/08/20 00:44:45;;;;;;;;;15.00;15.00;33.90;21.50;;;;;;685791;28;6112;-84
2021/08/20 00:45:06;;;;;;;;;17.00;15.00;33.90;21.50;;;;;;686173;28;6869;-85
2021/08/20 00:45:27;;;;;;;;;16.20;14.60;33.90;21.40;;;;;;682358;28;8117;-86
2021/08/20 00:45:59;;;;;;;;;16.00;13.25;33.90;21.50;;;;;;680734;28;6098;-84
2021/08/20 00:46:19;;;;;;;;;18.60;17.00;33.90;21.50;;;;;;680461;28;6242;-85
2021/08/20 00:46:44;;;;;;;;;16.00;15.00;33.90;21.50;;;;;;680590;28;6204;-85
2021/08/20 00:47:05;;;;;;;;;14.60;14.00;33.90;21.40;;;;;;683845;28;6177;-86
2021/08/20 00:47:32;;;;;;;;;16.40;15.40;33.90;21.40;;;;;;685541;28;6124;-84
2021/08/20 00:47:52;;;;;;;;;18.00;17.00;33.90;21.50;;;;;;688002;28;6187;-87
2021/08/20 00:48:13;;;;;;;;;14.50;14.50;33.90;21.70;;;;;;688061;28;6833;-84
2021/08/20 00:48:34;;;;;;;;;18.50;16.00;33.90;21.40;;;;;;684361;28;6049;-85
2021/08/20 00:48:54;;;;;;;;;15.40;14.00;33.90;21.40;;;;;;684430;28;6101;-84
2021/08/20 00:49:15;;;;;;;;;15.00;14.25;33.90;21.50;;;;;;683036;28;5937;-84
2021/08/20 00:49:36;;;;;;;;;16.00;14.00;33.90;21.40;;;;;;680186;28;6062;-84
2021/08/20 00:49:57;;;;;;;;;15.33;14.33;33.90;21.50;;;;;;679927;28;5942;-84
2021/08/20 00:50:17;;;;;;;;;14.75;14.75;33.90;21.60;;;;;;681066;28;6210;-86
2021/08/20 00:50:38;;;;;;;;;14.50;13.50;33.90;21.40;;;;;;682345;28;5401;-86
2021/08/20 00:51:04;;;;;;;;;17.20;13.60;33.90;21.30;;;;;;680167;28;6092;-86
2021/08/20 00:51:29;;;;;;;;;11.60;11.60;33.90;21.40;;;;;;682906;28;6324;-86
2021/08/20 00:51:51;;;;;;;;;13.50;13.50;33.90;21.40;;;;;;682567;28;6380;-86
2021/08/20 00:52:12;;;;;;;;;14.80;14.80;33.90;21.30;;;;;;682642;28;6307;-88
2021/08/20 00:52:34;;;;;;;;;13.40;12.60;33.90;21.60;;;;;;683367;28;6282;-85
2021/08/20 00:52:57;;;;;;;;;17.00;14.00;33.90;21.40;;;;;;686926;28;5948;-85
2021/08/20 00:53:18;;;;;;;;;14.50;14.50;33.90;21.40;;;;;;686520;28;6851;-86
2021/08/20 00:53:39;;;;;;;;;16.00;15.50;33.90;21.40;;;;;;688185;28;6008;-85
2021/08/20 00:54:01;;;;;;;;;15.00;15.00;33.90;21.40;;;;;;684998;28;6470;-87
2021/08/20 00:54:22;;;;;;;;;18.60;17.80;33.90;21.40;;;;;;681931;28;6315;-86
2021/08/20 00:54:43;;;;;;;;;18.00;17.00;33.90;21.40;;;;;;682993;28;6170;-87
2021/08/20 00:55:05;;;;;;;;;15.50;15.00;34.00;21.40;;;;;;679461;28;5732;-87
2021/08/20 00:55:26;;;;;;;;;19.00;18.00;33.90;21.30;;;;;;679429;28;6485;-86
2021/08/20 00:55:47;;;;;;;;;17.25;15.00;33.90;21.30;;;;;;681106;28;8311;-88
2021/08/20 00:56:08;;;;;;;;;14.33;14.00;33.90;21.30;;;;;;684590;28;6005;-84
2021/08/20 00:56:29;;;;;;;;;13.00;13.00;33.90;21.30;;;;;;683231;28;6250;-85
2021/08/20 00:56:50;;;;;;;;;17.20;14.00;33.90;21.40;;;;;;683984;28;6717;-84
2021/08/20 00:57:12;;;;;;;;;16.80;15.80;33.90;21.40;;;;;;686582;28;6417;-84
2021/08/20 00:57:33;;;;;;;;;15.75;14.75;34.00;21.40;;;;;;682657;28;6762;-84
2021/08/20 00:57:54;;;;;;;;;15.40;14.40;33.90;21.40;;;;;;681940;28;6094;-85
2021/08/20 00:58:15;;;;;;;;;16.00;16.00;33.90;21.40;;;;;;682424;28;6066;-86
2021/08/20 00:58:36;;;;;;;;;16.20;13.60;34.00;22.30;;;;;;685608;28;5990;-86
2021/08/20 00:58:56;;;;;;;;;15.25;14.25;34.00;21.50;;;;;;682670;28;5864;-86
2021/08/20 00:59:17;;;;;;;;;15.00;14.00;33.90;21.40;;;;;;682363;28;6765;-87
2021/08/20 00:59:39;;;;;;;;;14.60;14.60;34.00;21.40;;;;;;685282;28;6224;-85
2021/08/20 01:00:00;;;;;;;;;16.40;15.40;34.00;21.40;;;;;;681262;28;7427;-86
2021/08/20 01:00:22;;;;;;;;;16.60;16.00;34.00;21.40;;;;;;681415;28;6427;-84
2021/08/20 01:00:42;;;;;;;;;14.25;13.50;33.90;21.40;;;;;;683016;28;6360;-86
2021/08/20 01:01:03;;;;;;;;;15.00;14.50;34.00;21.50;;;;;;684576;28;5989;-85
2021/08/20 01:01:24;;;;;;;;;15.00;15.00;34.00;21.40;;;;;;685521;28;6091;-85
2021/08/20 01:01:45;;;;;;;;;16.50;16.50;34.00;21.50;;;;;;681929;28;6380;-87
2021/08/20 01:02:07;;;;;;;;;15.00;14.00;33.90;21.30;;;;;;684971;28;6128;-86
2021/08/20 01:02:27;;;;;;;;;14.20;14.20;33.90;21.30;;;;;;684611;28;6190;-86
2021/08/20 01:02:48;;;;;;;;;12.20;12.20;33.90;21.30;;;;;;682127;28;6064;-85
2021/08/20 01:03:09;;;;;;;;;12.25;11.25;33.90;21.40;;;;;;682028;28;6028;-85
2021/08/20 01:03:30;;;;;;;;;13.75;12.00;34.00;21.50;;;;;;680611;28;6527;-85
2021/08/20 01:03:51;;;;;;;;;16.40;15.80;34.00;21.40;;;;;;682282;28;6395;-85
2021/08/20 01:04:12;;;;;;;;;16.00;14.75;33.90;21.30;;;;;;683239;28;6170;-86
2021/08/20 01:04:34;;;;;;;;;13.80;13.60;33.90;21.30;;;;;;685358;28;6019;-85
2021/08/20 01:04:55;;;;;;;;;13.60;13.60;34.00;21.40;;;;;;688385;28;6489;-85
2021/08/20 01:05:19;;;;;;;;;14.00;13.00;34.00;21.50;;;;;;684726;28;6188;-87
2021/08/20 01:05:39;;;;;;;;;14.00;14.00;34.00;21.40;;;;;;685295;28;6311;-85
2021/08/20 01:06:04;;;;;;;;;14.00;14.00;34.00;21.40;;;;;;686087;28;6097;-85
2021/08/20 01:06:29;;;;;;;;;14.00;13.00;34.00;21.30;;;;;;681121;28;7771;-87
2021/08/20 01:06:56;;;;;;;;;15.60;14.40;34.00;21.30;;;;;;682823;28;6134;-86
2021/08/20 01:07:17;;;;;;;;;15.00;15.00;33.90;21.20;;;;;;682441;28;7853;-87
2021/08/20 01:07:38;;;;;;;;;13.50;13.50;34.00;21.30;;;;;;679865;28;6533;-85
2021/08/20 01:08:01;;;;;;;;;13.40;12.80;34.00;21.30;;;;;;676360;28;6113;-86
2021/08/20 01:08:40;;;;;;;;;14.50;13.50;34.00;21.60;;;;;;677760;28;6915;-86
2021/08/20 01:09:07;;;;;;;;;18.50;16.00;34.00;21.50;;;;;;679262;28;6609;-85
2021/08/20 01:09:31;;;;;;;;;15.75;13.75;33.90;21.40;;;;;;680290;28;6341;-85
2021/08/20 01:09:51;;;;;;;;;16.00;15.00;34.00;21.60;;;;;;683020;28;6350;-86
2021/08/20 01:10:13;;;;;;;;;13.00;12.40;34.00;21.60;;;;;;684121;28;6161;-84
2021/08/20 01:10:33;;;;;;;;;16.40;15.40;34.00;21.60;;;;;;686002;28;6096;-87
2021/08/20 01:11:00;;;;;;;;;15.00;15.00;34.00;21.50;;;;;;683649;28;6273;-86
2021/08/20 01:11:27;;;;;;;;;17.00;15.00;34.00;21.60;;;;;;683059;28;6157;-85
2021/08/20 01:11:51;;;;;;;;;14.50;14.50;34.00;21.50;;;;;;681955;28;6136;-84
2021/08/20 01:12:12;;;;;;;;;20.00;19.60;34.00;21.60;;;;;;681623;28;7196;-86
2021/08/20 01:12:36;;;;;;;;;19.00;17.00;34.00;21.60;;;;;;684862;28;6132;-85
2021/08/20 01:12:57;;;;;;;;;18.00;16.50;34.00;21.60;;;;;;684501;28;8585;-83
2021/08/20 01:13:22;;;;;;;;;16.00;16.00;33.90;21.60;;;;;;685689;28;6607;-86
2021/08/20 01:13:51;;;;;;;;;18.25;16.50;34.00;21.60;;;;;;687541;28;6464;-88
2021/08/20 01:14:31;;;;;;;;;19.00;17.40;34.00;21.60;;;;;;686143;28;8139;-88
2021/08/20 01:15:01;;;;;;;;;16.00;15.00;34.00;21.70;;;;;;686739;28;6549;-86
2021/08/20 01:15:24;;;;;;;;;16.25;16.25;34.00;21.80;;;;;;686429;28;6116;-86
2021/08/20 01:15:46;;;;;;;;;15.60;14.60;34.00;21.80;;;;;;685874;28;6827;-86
2021/08/20 01:16:08;;;;;;;;;20.75;18.75;33.90;21.60;;;;;;685531;28;6559;-84
2021/08/20 01:16:33;;;;;;;;;18.00;17.00;34.00;21.70;;;;;;687594;28;6376;-85
2021/08/20 01:16:53;;;;;;;;;14.60;14.60;33.90;21.60;;;;;;685943;28;6575;-85
2021/08/20 01:17:15;;;;;;;;;14.00;14.00;33.90;21.60;;;;;;687237;28;5815;-87
2021/08/20 01:17:36;;;;;;;;;12.80;12.80;34.00;21.80;;;;;;685456;28;6341;-86
2021/08/20 01:17:57;;;;;;;;;14.40;12.80;34.00;21.80;;;;;;682570;28;6051;-86
2021/08/20 01:18:26;;;;;;;;;13.50;12.50;34.00;21.70;;;;;;679388;28;6210;-87
2021/08/20 01:18:47;;;;;;;;;18.20;17.60;33.90;21.70;;;;;;679281;28;6813;-87
2021/08/20 01:19:08;;;;;;;;;20.00;19.50;34.00;21.70;;;;;;679719;28;6028;-88
2021/08/20 01:19:33;;;;;;;;;20.00;18.50;34.00;21.80;;;;;;680982;28;8071;-87
2021/08/20 01:19:54;;;;;;;;;16.00;15.00;33.90;21.80;;;;;;685040;28;7152;-86
2021/08/20 01:20:15;;;;;;;;;15.00;15.00;34.00;21.80;;;;;;686729;28;6231;-86
2021/08/20 01:20:35;;;;;;;;;12.75;12.00;33.90;21.70;;;;;;686317;28;6689;-87
2021/08/20 01:21:11;;;;;;;;;14.75;13.50;33.90;21.80;;;;;;688811;28;6190;-87
2021/08/20 01:21:32;;;;;;;;;13.25;12.75;33.90;21.70;;;;;;685008;28;6569;-84
2021/08/20 01:21:53;;;;;;;;;15.75;13.25;34.00;21.80;;;;;;686584;28;6216;-85
2021/08/20 01:22:14;;;;;;;;;11.50;10.50;33.90;21.80;;;;;;686079;28;7113;-86
2021/08/20 01:22:41;;;;;;;;;14.40;12.00;34.00;21.90;;;;;;686378;28;6074;-85
2021/08/20 01:23:06;;;;;;;;;15.75;15.75;34.00;21.90;;;;;;686933;28;6278;-86
2021/08/20 01:23:28;;;;;;;;;16.00;15.25;33.90;21.80;;;;;;683479;28;6934;-86
2021/08/20 01:24:00;;;;;;;;;12.80;12.60;34.00;21.90;;;;;;685318;28;8299;-85
2021/08/20 01:24:22;;;;;;;;;18.00;17.00;34.00;21.90;;;;;;683766;28;6781;-85
2021/08/20 01:24:46;;;;;;;;;17.20;16.20;34.00;22.00;;;;;;683493;28;8290;-86
2021/08/20 01:25:07;;;;;;;;;15.00;14.00;34.00;22.00;;;;;;684168;28;6608;-86
2021/08/20 01:25:28;;;;;;;;;20.50;17.50;33.90;21.90;;;;;;683926;28;5337;-85
2021/08/20 01:25:49;;;;;;;;;18.00;16.25;33.90;21.90;;;;;;679580;28;6685;-85
2021/08/20 01:26:10;;;;;;;;;16.60;16.60;34.00;22.10;;;;;;677155;28;6223;-85
2021/08/20 01:26:32;;;;;;;;;15.00;15.00;34.00;22.00;;;;;;674257;29;5610;-87
2021/08/20 01:26:53;;;;;;;;;14.50;14.50;33.90;22.00;;;;;;674293;29;7509;-88
2021/08/20 01:27:18;;;;;;;;;14.40;14.40;34.00;22.00;;;;;;671969;29;7728;-88
2021/08/20 01:27:39;;;;;;;;;17.75;17.00;34.00;22.00;;;;;;675511;28;6550;-88
2021/08/20 01:28:09;;;;;;;;;17.40;16.40;33.90;21.90;;;;;;678263;28;6148;-87
2021/08/20 01:28:31;;;;;;;;;15.25;14.00;34.00;22.10;;;;;;681827;28;6760;-86
2021/08/20 01:28:52;;;;;;;;;14.75;14.00;34.00;22.10;;;;;;684089;28;6427;-86
2021/08/20 01:29:16;;;;;;;;;18.00;15.40;34.00;22.10;;;;;;683799;28;6855;-84
2021/08/20 01:29:37;;;;;;;;;19.00;16.40;33.90;22.20;;;;;;681732;28;7219;-85
2021/08/20 01:29:58;;;;;;;;;16.40;14.80;34.00;22.10;;;;;;681480;28;6790;-87
2021/08/20 01:30:22;;;;;;;;;15.50;14.00;33.90;22.00;;;;;;681060;28;6090;-87
2021/08/20 01:30:43;;;;;;;;;16.00;14.50;34.00;22.10;;;;;;681715;28;7449;-87
2021/08/20 01:31:07;;;;;;;;;12.50;12.00;33.90;22.00;;;;;;680224;28;6181;-85
2021/08/20 01:31:29;;;;;;;;;11.00;11.00;34.00;22.10;;;;;;682496;28;6134;-84
2021/08/20 01:31:50;;;;;;;;;14.20;14.00;33.90;22.30;;;;;;684298;28;6267;-87
2021/08/20 01:32:22;;;;;;;;;15.60;15.00;33.90;22.00;;;;;;682875;28;8396;-87
2021/08/20 01:32:46;;;;;;;;;17.00;15.00;34.00;22.20;;;;;;680501;28;6468;-87
2021/08/20 01:33:08;;;;;;;;;18.40;18.40;34.00;22.10;;;;;;683648;28;6214;-87
2021/08/20 01:33:29;;;;;;;;;17.00;16.40;34.00;22.10;;;;;;683158;28;6170;-84
2021/08/20 01:33:49;;;;;;;;;16.80;15.40;33.90;22.10;;;;;;683909;28;6155;-88
2021/08/20 01:34:11;;;;;;;;;14.80;14.40;33.90;22.10;;;;;;681437;28;6945;-87
2021/08/20 01:34:34;;;;;;;;;12.20;12.20;34.00;22.20;;;;;;681747;28;7890;-88
2021/08/20 01:34:55;;;;;;;;;16.20;14.80;34.00;22.20;;;;;;685257;28;8266;-85
2021/08/20 01:35:16;;;;;;;;;14.25;14.00;34.00;22.20;;;;;;684216;28;5913;-82
2021/08/20 01:35:37;;;;;;;;;14.60;12.60;34.00;22.20;;;;;;684687;28;6093;-88
2021/08/20 01:35:58;;;;;;;;;18.00;17.00;33.90;22.10;;;;;;686179;28;6870;-83
2021/08/20 01:36:19;;;;;;;;;19.60;16.00;34.00;22.20;;;;;;687188;28;6175;-84
2021/08/20 01:36:40;;;;;;;;;19.40;15.80;34.00;22.20;;;;;;681967;28;6217;-86
2021/08/20 01:37:01;;;;;;;;;16.00;16.00;34.00;22.20;;;;;;682400;28;5448;-86
2021/08/20 01:37:21;;;;;;;;;14.00;14.00;34.00;22.20;;;;;;681538;28;6704;-86
2021/08/20 01:37:42;;;;;;;;;12.50;12.50;34.00;22.20;;;;;;681632;28;5967;-88
2021/08/20 01:38:03;;;;;;;;;14.00;13.40;33.90;22.20;;;;;;681365;28;6137;-85
2021/08/20 01:38:24;;;;;;;;;15.00;14.00;34.00;22.30;;;;;;681887;28;6163;-87
2021/08/20 01:38:50;;;;;;;;;15.00;14.00;34.00;22.20;;;;;;682266;28;6136;-86
2021/08/20 01:39:11;;;;;;;;;13.60;12.60;34.00;22.20;;;;;;684002;28;6291;-85
2021/08/20 01:39:32;;;;;;;;;16.00;15.50;34.00;22.20;;;;;;685307;28;6152;-85
2021/08/20 01:39:52;;;;;;;;;15.00;14.00;34.00;22.20;;;;;;686171;28;6209;-86
2021/08/20 01:40:16;;;;;;;;;14.50;13.50;34.00;22.20;;;;;;685196;28;5930;-85
2021/08/20 01:40:37;;;;;;;;;17.00;16.00;34.00;22.20;;;;;;685866;28;6197;-86
2021/08/20 01:40:58;;;;;;;;;16.00;15.00;34.00;22.20;;;;;;682327;28;6082;-85
2021/08/20 01:41:23;;;;;;;;;16.00;15.00;34.00;22.20;;;;;;683071;28;6194;-86
2021/08/20 01:41:44;;;;;;;;;16.80;14.00;34.00;22.20;;;;;;682451;28;6582;-86
2021/08/20 01:42:05;;;;;;;;;15.25;13.25;34.00;22.20;;;;;;683007;28;5962;-86
2021/08/20 01:42:25;;;;;;;;;17.00;14.00;34.00;22.30;;;;;;684135;28;6033;-87
2021/08/20 01:42:46;;;;;;;;;17.20;13.80;34.00;22.30;;;;;;681606;28;6276;-87
2021/08/20 01:43:07;;;;;;;;;15.50;15.00;34.00;22.20;;;;;;678936;28;6086;-85
2021/08/20 01:43:28;;;;;;;;;16.00;13.00;34.00;22.30;;;;;;677662;28;6109;-86
2021/08/20 01:43:52;;;;;;;;;15.00;15.00;34.00;22.30;;;;;;676520;28;6312;-89
2021/08/20 01:44:12;;;;;;;;;18.20;16.20;34.00;22.30;;;;;;674604;29;6498;-85
2021/08/20 01:44:33;;;;;;;;;18.25;16.25;34.00;22.30;;;;;;676360;28;6063;-88
2021/08/20 01:44:54;;;;;;;;;12.25;12.25;34.00;22.30;;;;;;675233;28;6129;-86
2021/08/20 01:45:15;;;;;;;;;14.00;13.00;34.00;22.30;;;;;;675583;28;6122;-87
2021/08/20 01:45:36;;;;;;;;;16.25;14.25;34.00;22.30;;;;;;675368;28;6100;-88
2021/08/20 01:45:56;;;;;;;;;15.25;15.25;34.00;22.40;;;;;;672878;28;6274;-88
2021/08/20 01:46:18;;;;;;;;;15.40;15.40;34.00;22.30;;;;;;675790;28;6148;-85
2021/08/20 01:46:39;;;;;;;;;15.00;14.25;34.00;22.30;;;;;;675482;28;6624;-88
2021/08/20 01:47:00;;;;;;;;;14.20;13.00;34.00;22.30;;;;;;677619;28;6217;-86
2021/08/20 01:47:20;;;;;;;;;16.00;14.75;34.00;22.30;;;;;;677543;28;6134;-84
2021/08/20 01:47:41;;;;;;;;;16.25;14.50;34.00;22.30;;;;;;680150;28;6207;-85
2021/08/20 01:48:03;;;;;;;;;18.00;17.75;34.00;22.40;;;;;;682477;28;6746;-85
2021/08/20 01:48:23;;;;;;;;;15.20;14.00;34.10;22.40;;;;;;683183;28;8716;-85
2021/08/20 01:48:47;;;;;;;;;19.50;17.00;34.00;22.40;;;;;;681990;28;6985;-86
2021/08/20 01:49:07;;;;;;;;;19.00;16.00;34.00;22.40;;;;;;682457;28;6571;-86
2021/08/20 01:49:28;;;;;;;;;18.00;18.00;34.00;22.40;;;;;;682984;28;6149;-87
2021/08/20 01:49:49;;;;;;;;;17.00;16.00;34.00;22.40;;;;;;683419;28;6035;-87
2021/08/20 01:50:11;;;;;;;;;19.00;18.00;34.00;22.40;;;;;;683008;28;6133;-86
2021/08/20 01:50:32;;;;;;;;;15.00;15.00;34.00;22.40;;;;;;682645;28;6323;-86
2021/08/20 01:50:53;;;;;;;;;14.00;14.00;33.90;22.30;;;;;;685711;28;5929;-85
2021/08/20 01:51:15;;;;;;;;;15.00;15.00;34.00;23.30;;;;;;683460;28;6095;-86
2021/08/20 01:51:36;;;;;;;;;17.00;15.60;34.00;22.40;;;;;;681529;28;6682;-87
2021/08/20 01:51:57;;;;;;;;;14.00;13.75;34.00;22.40;;;;;;682547;28;5550;-84
2021/08/20 01:52:18;;;;;;;;;15.67;14.00;34.00;22.50;;;;;;682483;28;5570;-86
2021/08/20 01:52:38;;;;;;;;;16.00;14.00;34.00;22.60;;;;;;682248;28;6888;-86
2021/08/20 01:52:59;;;;;;;;;18.00;17.00;34.00;22.90;;;;;;683343;28;6140;-86
2021/08/20 01:53:20;;;;;;;;;16.80;16.20;34.00;22.50;;;;;;683446;28;6133;-87
2021/08/20 01:53:43;;;;;;;;;17.20;16.00;34.00;22.40;;;;;;682397;28;6193;-86
2021/08/20 01:54:04;;;;;;;;;17.00;16.00;34.00;22.50;;;;;;679821;28;9521;-85
2021/08/20 01:54:25;;;;;;;;;15.60;15.00;34.00;22.50;;;;;;679884;28;6090;-86
2021/08/20 01:54:48;;;;;;;;;15.00;14.00;33.90;22.40;;;;;;679653;28;6019;-85